Who's Online?
Quick Chart Search


KBUR 201253Z 17003KT 10SM OVC012 18/14 A2993 RMK AO2 SLP124 T01830144
KLAS 201256Z 17003KT 10SM FEW140 28/08 A2988 RMK AO2 SLP087 ACC DSNT NE T02780083
KLAX 201253Z 24003KT 10SM BKN018 19/16 A2993 RMK AO2 SLP131 T01940161
KLGB 201253Z AUTO 12005KT 10SM OVC020 20/15 A2992 RMK AO2 SLP132 T02000150
KONT 201253Z 24005KT 7SM OVC011 18/16 A2994 RMK AO2 SLP124 T01780156
KPSP 201253Z 00000KT 10SM CLR 26/13 A2981 RMK AO2 SLP089 T02610128
KSAN 201251Z 30003KT 10SM OVC021 21/15 A2993 RMK AO2 SLP136 T02060150
KSBA 201253Z AUTO 13004KT 9SM OVC012 18/16 A2992 RMK AO2 SLP131 T01780156 TSNO
KSNA 201253Z 00000KT 10SM OVC018 20/16 A2992 RMK AO2 SLP130 T02000161


KBUR 2017/08/20 12:24
TAF KBUR 201123Z 2012/2112 VRB03KT P6SM OVC012
FM201730 VRB03KT P6SM FEW015
FM202000 17010KT P6SM SKC
FM210300 13006KT P6SM SKC
FM210600 VRB03KT P6SM BKN015 OVC025
KLAS 2017/08/20 12:24
TAF KLAS 201122Z 2012/2118 VRB04KT P6SM FEW130
FM201700 09007KT P6SM SCT130
FM202100 16011KT P6SM SCT130
FM210200 21009KT P6SM SCT110 BKN130
FM210800 VRB06KT P6SM BKN110 PROB30 2108/2112 -SHRA OVC110
FM211200 VRB06KT P6SM BKN100 PROB30 2112/2118 -SHRA OVC090
KLAX 2017/08/20 13:03
TAF
AMD KLAX 201301Z 2013/2118 23006KT P6SM OVC018
FM201500 VRB03KT P6SM OVC025
FM201900 25010KT P6SM OVC025
FM202100 26012KT P6SM SCT025
FM210200 26010KT P6SM OVC018
FM210800 VRB03KT P6SM OVC025
KLGB 2017/08/20 13:03
TAF
AMD KLGB 201301Z 2013/2112 VRB03KT P6SM OVC020
FM201400 VRB03KT P6SM OVC025
FM201800 19008KT P6SM FEW025
FM210000 30008KT P6SM SKC
FM210600 VRB03KT P6SM SCT015 OVC025
KONT 2017/08/20 12:22
TAF KONT 201120Z 2012/2118 VRB04KT P6SM FEW012
TEMPO 2012/2016 4SM BR HZ BKN008
FM201900 26011KT P6SM SKC
FM210500 VRB04KT P6SM SKC
FM211000 VRB04KT 4SM BR BKN010
FM211600 VRB05KT P6SM SCT012
KPSP 2017/08/20 12:22
TAF KPSP 201120Z 2012/2112 VRB05KT P6SM SKC
FM210000 33011G19KT P6SM SKC
FM210700 VRB05KT P6SM SKC
KSAN 2017/08/20 12:22
TAF KSAN 201120Z 2012/2118 VRB04KT P6SM OVC020
FM202000 28009KT P6SM SCT022
FM210200 VRB04KT P6SM OVC017
KSBA 2017/08/20 12:24
TAF KSBA 201123Z 2012/2112 VRB03KT P6SM OVC010
FM201700 16007KT P6SM OVC018
FM202000 25008KT P6SM SCT020
FM210500 VRB03KT P6SM OVC015
KSNA 2017/08/20 12:22
TAF KSNA 201120Z 2012/2112 VRB04KT P6SM OVC020
FM201800 22009KT P6SM SCT022
FM210200 VRB04KT P6SM SCT020
FM210400 VRB03KT P6SM OVC018

SW CONUS Visible

Loop: 3hr, 12hrHi-Res

SW CONUS Enhanced Infrared

Loop: 3hr, 12hrHi-Res

CONUS Water Vapor

Loop: 3hr, 12hrHi-Res

300

500


700

850


Surface Map

Back to Top